Stolt Ami — 3EAZ5 — position and weather

sailwx.info

Track history (hours):
 
Tides and Currents Weather Stations Pressure Air Temp Water Temp Dewpoint Dewpoint Depression Visibility Wind Speed Wind Dir Waves Ship Positions

Stolt Ami

Last reported at 2017-Aug-19 00:00 UTC. Time now 2017-Aug-18 23:58 UTC.
Position N 01°03' E 103°40'.

Length 143 m; draft 9.1 m.

Type: Ship (hazmat cat B). MMSI: 371392514.

Date/timePositionNaut miles runAvg speedWind from/ knotsBaromVisibWave heightAir tempDewpointWater temp
2017-Aug-19 00:00N 01°03' E 103°40'612.5
2017-Aug-18 23:30N 01°06' E 103°35'4 8.8
2017-Aug-18 23:00N 01°10' E 103°34'611.2
2017-Aug-18 22:30N 01°12' E 103°39'2 3.2
2017-Aug-18 21:56N 01°14' E 103°39'0 0.0
2017-Aug-18 21:29N 01°14' E 103°39'0 0.0
2017-Aug-18 20:59N 01°14' E 103°39'0 0.0
2017-Aug-18 20:29N 01°14' E 103°39'0 0.0
2017-Aug-18 19:59N 01°14' E 103°39'0 0.0
2017-Aug-18 19:29N 01°14' E 103°39'0 0.0
2017-Aug-18 18:56N 01°14' E 103°39'0 0.0
2017-Aug-18 18:26N 01°14' E 103°39'0 0.0
2017-Aug-18 17:59N 01°14' E 103°39'0 0.0
2017-Aug-18 17:29N 01°14' E 103°39'0 0.0
2017-Aug-18 16:59N 01°14' E 103°39'0 0.1
2017-Aug-18 16:26N 01°14' E 103°39'0 0.0
2017-Aug-18 15:59N 01°14' E 103°39'0 0.0
2017-Aug-18 15:26N 01°14' E 103°39'0 0.0
2017-Aug-18 14:59N 01°14' E 103°39'0 0.0
2017-Aug-18 13:59N 01°14' E 103°39'0 0.0
2017-Aug-18 13:29N 01°14' E 103°39'0 0.0
2017-Aug-18 12:59N 01°14' E 103°39'0 0.1
2017-Aug-18 12:26N 01°14' E 103°39'0 0.0
2017-Aug-18 11:56N 01°14' E 103°39'0 0.0
2017-Aug-18 11:29N 01°14' E 103°39'0 0.1
2017-Aug-18 11:00N 01°14' E 103°39'2 3.2
2017-Aug-18 10:30N 01°12' E 103°39'4 8.0
2017-Aug-18 10:00N 01°12' E 103°35'4 7.9
2017-Aug-18 09:30N 01°11' E 103°31'3 5.9
2017-Aug-18 09:01N 01°10' E 103°28'3 5.5
2017-Aug-18 08:29N 01°11' E 103°26'  
Track history (hours):
 
Tides and Currents Weather Stations Pressure Air Temp Water Temp Dewpoint Dewpoint Depression Visibility Wind Speed Wind Dir Waves Ship Positions

Stolt Ami

Last reported at 2017-Aug-19 00:00 UTC. Time now 2017-Aug-18 23:58 UTC.
Position N 01°03' E 103°40'.

Length 143 m; draft 9.1 m.

Type: Ship (hazmat cat B). MMSI: 371392514.

Date/timePositionNaut miles runAvg speedWind from/ knotsBaromVisibWave heightAir tempDewpointWater temp
2017-Aug-19 00:00N 01°03' E 103°40'612.5
2017-Aug-18 23:30N 01°06' E 103°35'4 8.8
2017-Aug-18 23:00N 01°10' E 103°34'611.2
2017-Aug-18 22:30N 01°12' E 103°39'2 3.2
2017-Aug-18 21:56N 01°14' E 103°39'0 0.0
2017-Aug-18 21:29N 01°14' E 103°39'0 0.0
2017-Aug-18 20:59N 01°14' E 103°39'0 0.0
2017-Aug-18 20:29N 01°14' E 103°39'0 0.0
2017-Aug-18 19:59N 01°14' E 103°39'0 0.0
2017-Aug-18 19:29N 01°14' E 103°39'0 0.0
2017-Aug-18 18:56N 01°14' E 103°39'0 0.0
2017-Aug-18 18:26N 01°14' E 103°39'0 0.0
2017-Aug-18 17:59N 01°14' E 103°39'0 0.0
2017-Aug-18 17:29N 01°14' E 103°39'0 0.0
2017-Aug-18 16:59N 01°14' E 103°39'0 0.1
2017-Aug-18 16:26N 01°14' E 103°39'0 0.0
2017-Aug-18 15:59N 01°14' E 103°39'0 0.0
2017-Aug-18 15:26N 01°14' E 103°39'0 0.0
2017-Aug-18 14:59N 01°14' E 103°39'0 0.0
2017-Aug-18 13:59N 01°14' E 103°39'0 0.0
2017-Aug-18 13:29N 01°14' E 103°39'0 0.0
2017-Aug-18 12:59N 01°14' E 103°39'0 0.1
2017-Aug-18 12:26N 01°14' E 103°39'0 0.0
2017-Aug-18 11:56N 01°14' E 103°39'0 0.0
2017-Aug-18 11:29N 01°14' E 103°39'0 0.1
2017-Aug-18 11:00N 01°14' E 103°39'2 3.2
2017-Aug-18 10:30N 01°12' E 103°39'4 8.0
2017-Aug-18 10:00N 01°12' E 103°35'4 7.9
2017-Aug-18 09:30N 01°11' E 103°31'3 5.9
2017-Aug-18 09:01N 01°10' E 103°28'3 5.5
2017-Aug-18 08:29N 01°11' E 103°26'  

Dump ship's entire track history